Time;durP1;ratioP1;P1;durP2;ratioP2;P2;SDS_P1;SDS_P2;PMS_P1;PMS_P2;Temp;Humidity;BMP_temperature;BMP_pressure;BME280_temperature;BME280_humidity;BME280_pressure;Samples;Min_cycle;Max_cycle;Signal;HPM_P1;HPM_P2
2021/10/07 00:00:12;;;;;;;16.10;5.10;;;;;;;13.07;77.41;100614.50;5020070;28;20036;-69
2021/10/07 00:02:37;;;;;;;15.05;5.05;;;;;;;13.08;76.90;100608.19;5020720;28;20030;-68
2021/10/07 00:05:05;;;;;;;16.92;4.85;;;;;;;13.01;77.21;100606.31;5019693;28;20140;-69
2021/10/07 00:07:30;;;;;;;13.55;4.95;;;;;;;13.00;76.96;100605.47;5021079;28;20093;-69
2021/10/07 00:09:56;;;;;;;19.60;5.72;;;;;;;12.96;76.97;100608.59;5020250;28;20341;-69
2021/10/07 00:12:21;;;;;;;15.30;5.10;;;;;;;12.95;76.89;100613.09;5020372;28;20040;-69
2021/10/07 00:14:47;;;;;;;16.35;6.10;;;;;;;12.90;77.01;100598.59;5020545;28;20255;-69
2021/10/07 00:17:12;;;;;;;19.92;6.47;;;;;;;12.93;76.60;100588.47;5021071;28;20038;-69
2021/10/07 00:19:38;;;;;;;25.45;6.85;;;;;;;12.95;76.81;100590.97;5022843;28;20045;-69
2021/10/07 00:22:04;;;;;;;15.93;6.30;;;;;;;12.92;77.62;100592.13;5018439;28;20215;-69
2021/10/07 00:24:29;;;;;;;16.42;6.57;;;;;;;12.71;77.75;100551.78;5021167;28;20090;-69
2021/10/07 00:26:55;;;;;;;13.77;6.00;;;;;;;12.89;77.16;100595.09;5022845;28;20041;-69
2021/10/07 00:31:59;;;;;;;20.70;6.25;;;;;;;12.91;77.16;100579.81;5019438;28;20028;-69
2021/10/07 00:39:46;;;;;;;17.08;5.53;;;;;;;12.91;77.15;100581.66;5018861;28;20025;-69
2021/10/07 00:42:12;;;;;;;13.15;4.57;;;;;;;12.83;77.06;100581.59;5021007;28;20354;-69
2021/10/07 00:44:39;;;;;;;11.38;5.00;;;;;;;12.70;77.08;100574.03;5019183;28;20037;-69
2021/10/07 00:47:07;;;;;;;11.20;4.45;;;;;;;12.68;77.31;100579.50;5019409;28;20312;-69
2021/10/07 00:49:38;;;;;;;10.65;4.07;;;;;;;12.69;77.53;100580.34;5023257;28;20036;-69
2021/10/07 00:52:04;;;;;;;15.40;4.43;;;;;;;12.63;77.48;100578.31;5020414;28;20041;-69
2021/10/07 00:54:30;;;;;;;10.68;4.45;;;;;;;12.69;77.95;100567.88;5021135;28;20091;-69
2021/10/07 00:56:56;;;;;;;17.13;4.97;;;;;;;12.62;77.73;100571.31;5020298;28;20045;-69
2021/10/07 00:59:23;;;;;;;13.13;4.43;;;;;;;12.66;78.04;100580.66;5021230;28;20029;-69
2021/10/07 01:01:48;;;;;;;16.80;4.50;;;;;;;12.70;78.00;100580.19;5019725;28;20033;-69
2021/10/07 01:04:14;;;;;;;18.48;4.40;;;;;;;12.63;78.07;100579.13;5019733;28;20536;-69
2021/10/07 01:06:43;;;;;;;12.07;4.57;;;;;;;12.63;78.14;100570.34;5019386;28;20084;-69
2021/10/07 01:09:09;;;;;;;11.68;4.45;;;;;;;12.60;78.66;100568.81;5023217;28;20092;-69
2021/10/07 01:11:35;;;;;;;16.20;4.05;;;;;;;12.59;78.81;100559.19;5021679;28;20045;-69
2021/10/07 01:14:01;;;;;;;12.60;4.50;;;;;;;12.62;78.89;100558.03;5021054;28;20045;-69
2021/10/07 01:16:26;;;;;;;13.52;4.47;;;;;;;12.52;78.67;100547.50;5020984;28;20034;-69
2021/10/07 01:18:52;;;;;;;12.38;4.13;;;;;;;12.66;78.83;100557.56;5020873;28;20030;-69
2021/10/07 01:21:19;;;;;;;11.75;3.70;;;;;;;12.65;78.84;100558.56;5021532;28;20030;-69
2021/10/07 01:23:46;;;;;;;19.83;4.68;;;;;;;12.59;79.07;100551.22;5019239;28;20335;-69
2021/10/07 01:26:14;;;;;;;13.90;6.43;;;;;;;12.58;78.74;100554.03;5020177;28;20312;-69
2021/10/07 01:28:43;;;;;;;13.55;4.47;;;;;;;12.59;78.68;100555.69;5019436;28;20032;-69
2021/10/07 01:31:08;;;;;;;18.65;5.10;;;;;;;12.55;79.42;100559.66;5020371;28;20255;-69
2021/10/07 01:33:34;;;;;;;9.40;4.88;;;;;;;12.60;79.00;100549.38;5020464;28;20030;-69
2021/10/07 01:36:01;;;;;;;17.23;5.47;;;;;;;12.60;79.04;100554.69;5019383;28;20030;-69
2021/10/07 01:38:27;;;;;;;13.25;5.15;;;;;;;12.64;78.27;100543.59;5019781;28;20243;-69
2021/10/07 01:40:53;;;;;;;10.55;5.38;;;;;;;12.64;78.89;100534.81;5020742;28;20038;-69
2021/10/07 01:43:18;;;;;;;17.65;6.03;;;;;;;12.58;78.83;100525.63;5020388;28;20033;-69
2021/10/07 01:45:48;;;;;;;18.15;6.72;;;;;;;12.62;78.96;100534.13;5020949;28;20037;-69
2021/10/07 01:48:14;;;;;;;20.58;6.85;;;;;;;12.56;78.40;100532.09;5020485;28;20101;-69
2021/10/07 01:50:40;;;;;;;20.27;7.30;;;;;;;12.59;78.40;100537.94;5018419;28;20045;-69
2021/10/07 01:53:06;;;;;;;18.25;7.47;;;;;;;12.68;78.12;100538.81;5020850;28;20072;-69
2021/10/07 01:55:31;;;;;;;18.75;6.57;;;;;;;12.58;78.30;100535.44;5020522;28;20092;-69
2021/10/07 01:57:57;;;;;;;12.80;6.20;;;;;;;12.66;77.75;100531.00;5019908;28;20030;-69
2021/10/07 02:00:22;;;;;;;15.88;6.90;;;;;;;12.51;79.22;100527.25;5022617;28;20137;-69
2021/10/07 02:02:48;;;;;;;13.77;5.25;;;;;;;12.48;79.06;100535.50;5026401;28;20021;-69
2021/10/07 02:05:13;;;;;;;15.35;6.30;;;;;;;12.69;78.56;100532.50;5023566;28;20033;-69
2021/10/07 02:07:39;;;;;;;16.52;6.82;;;;;;;12.84;78.26;100535.44;5021033;28;20022;-69
2021/10/07 02:10:12;;;;;;;14.27;6.30;;;;;;;12.83;77.49;100541.72;5024023;28;20034;-69
2021/10/07 02:12:39;;;;;;;14.73;5.43;;;;;;;12.79;77.53;100541.22;5022968;28;20326;-69
2021/10/07 02:15:06;;;;;;;23.10;5.90;;;;;;;12.87;77.44;100543.09;5022346;28;20037;-69
2021/10/07 02:17:31;;;;;;;17.88;6.65;;;;;;;13.09;77.01;100537.22;5023828;28;20053;-69
2021/10/07 02:19:57;;;;;;;18.13;6.40;;;;;;;13.32;75.61;100532.19;5022235;28;20124;-69
2021/10/07 02:22:22;;;;;;;17.27;7.07;;;;;;;13.48;74.00;100540.22;5023288;28;20053;-69
2021/10/07 02:24:48;;;;;;;13.02;5.53;;;;;;;13.63;72.18;100533.31;5022256;28;20029;-69
2021/10/07 02:27:13;;;;;;;12.88;5.90;;;;;;;13.66;71.43;100542.81;5024332;28;20279;-69
2021/10/07 02:29:39;;;;;;;13.45;5.68;;;;;;;13.68;70.70;100535.50;5022923;28;20029;-69
2021/10/07 02:32:05;;;;;;;14.95;5.18;;;;;;;13.80;69.95;100530.69;5023941;28;20045;-69
2021/10/07 02:34:30;;;;;;;17.08;5.70;;;;;;;13.80;69.70;100538.69;5021982;28;20324;-69
2021/10/07 02:36:56;;;;;;;14.38;5.70;;;;;;;13.86;69.60;100533.53;5023723;28;20038;-69
2021/10/07 02:39:21;;;;;;;13.40;5.22;;;;;;;13.95;69.01;100539.72;5022777;28;20092;-69
2021/10/07 02:41:46;;;;;;;18.17;5.60;;;;;;;13.91;68.70;100547.19;5020947;28;20026;-69
2021/10/07 02:44:12;;;;;;;14.05;6.07;;;;;;;13.84;69.27;100546.19;5021999;28;20026;-69
2021/10/07 02:46:37;;;;;;;15.05;5.65;;;;;;;13.79;68.91;100548.50;5020697;28;20029;-69
2021/10/07 02:49:04;;;;;;;11.85;5.22;;;;;;;13.79;69.42;100539.69;5023011;28;20017;-69
2021/10/07 02:51:29;;;;;;;13.15;5.25;;;;;;;13.90;68.45;100534.88;5022011;28;20193;-69
2021/10/07 02:53:54;;;;;;;22.30;5.75;;;;;;;13.93;67.89;100531.88;5022820;28;20038;-69
2021/10/07 02:56:20;;;;;;;18.20;6.22;;;;;;;13.94;67.27;100525.56;5022799;28;20088;-69
2021/10/07 02:58:45;;;;;;;17.65;6.00;;;;;;;13.90;67.57;100528.72;5022984;28;20044;-69
2021/10/07 03:01:11;;;;;;;12.43;6.47;;;;;;;13.81;68.06;100527.88;5021352;28;20336;-69
2021/10/07 03:03:36;;;;;;;14.68;5.28;;;;;;;13.76;67.66;100513.38;5026397;28;20080;-69
2021/10/07 03:06:02;;;;;;;11.20;5.07;;;;;;;13.76;67.83;100521.38;5019481;28;20052;-69
2021/10/07 03:08:27;;;;;;;14.82;5.80;;;;;;;13.76;67.52;100529.38;5022390;28;20320;-69
2021/10/07 03:10:57;;;;;;;11.15;5.32;;;;;;;13.72;67.88;100521.69;5022066;28;20076;-69
2021/10/07 03:13:23;;;;;;;14.45;5.47;;;;;;;13.78;66.97;100516.72;5022280;28;20045;-69
2021/10/07 03:15:49;;;;;;;14.27;5.13;;;;;;;13.71;67.69;100517.38;5022422;28;20048;-69
2021/10/07 03:18:14;;;;;;;9.70;4.72;;;;;;;13.62;68.09;100515.69;5023537;28;20022;-69
2021/10/07 03:20:40;;;;;;;13.48;5.15;;;;;;;13.66;67.70;100516.19;5022237;28;20092;-69
2021/10/07 03:23:05;;;;;;;14.55;6.03;;;;;;;13.70;67.56;100521.03;5022204;28;20339;-69
2021/10/07 03:25:31;;;;;;;13.27;5.72;;;;;;;13.74;67.47;100518.88;5021662;28;20193;-69
2021/10/07 03:27:57;;;;;;;20.55;5.53;;;;;;;13.79;67.28;100523.72;5022669;28;20443;-69
2021/10/07 03:30:22;;;;;;;30.33;5.60;;;;;;;13.75;67.07;100525.88;5022140;28;20089;-69
2021/10/07 03:32:48;;;;;;;28.70;6.25;;;;;;;13.68;67.45;100522.19;5020342;28;20266;-69
2021/10/07 03:35:14;;;;;;;17.27;5.00;;;;;;;13.73;67.32;100534.00;5021195;28;20042;-69
2021/10/07 03:37:39;;;;;;;19.70;5.70;;;;;;;13.73;67.18;100526.03;5022853;28;20262;-69
2021/10/07 03:40:07;;;;;;;14.02;4.47;;;;;;;13.72;66.88;100519.03;5021613;28;20044;-69
2021/10/07 03:42:32;;;;;;;12.48;4.72;;;;;;;13.68;66.78;100523.03;5021911;28;20109;-69
2021/10/07 03:44:58;;;;;;;13.43;4.40;;;;;;;13.54;67.70;100515.69;5021376;28;20326;-69
2021/10/07 03:47:23;;;;;;;12.18;4.25;;;;;;;13.47;68.20;100522.59;5022419;28;20048;-69
2021/10/07 03:49:50;;;;;;;12.13;4.95;;;;;;;13.45;68.22;100521.09;5023980;28;20026;-69
2021/10/07 03:52:15;;;;;;;12.80;4.20;;;;;;;13.41;68.21;100513.44;5021992;28;20040;-69
2021/10/07 03:54:41;;;;;;;12.38;4.35;;;;;;;13.44;68.21;100509.63;5021165;28;20054;-69
2021/10/07 03:57:06;;;;;;;10.50;4.57;;;;;;;13.46;68.00;100509.47;5021641;28;20048;-69
2021/10/07 03:59:32;;;;;;;11.00;4.75;;;;;;;13.26;68.73;100514.22;5021148;28;20037;-69
2021/10/07 04:01:57;;;;;;;14.80;5.22;;;;;;;13.04;69.31;100507.63;5019891;28;20076;-69
2021/10/07 04:04:22;;;;;;;15.15;5.97;;;;;;;12.99;70.39;100509.91;5020142;28;20041;-69
2021/10/07 04:06:48;;;;;;;15.05;5.05;;;;;;;13.04;70.03;100512.94;5021996;28;20038;-69
2021/10/07 04:09:13;;;;;;;15.73;6.10;;;;;;;13.09;70.04;100522.09;5021318;28;20030;-69
2021/10/07 04:11:39;;;;;;;18.90;5.78;;;;;;;13.00;69.19;100493.81;5020701;28;20033;-69
2021/10/07 04:14:04;;;;;;;17.42;5.47;;;;;;;13.08;70.05;100509.81;5021291;28;20042;-69
2021/10/07 04:16:30;;;;;;;16.52;5.95;;;;;;;13.07;70.52;100509.97;5022671;28;20038;-69
2021/10/07 04:18:55;;;;;;;17.83;6.40;;;;;;;13.17;70.32;100510.69;5021560;28;20026;-69
2021/10/07 04:21:23;;;;;;;18.60;6.72;;;;;;;13.34;69.42;100508.94;5019817;28;20034;-69
2021/10/07 04:23:49;;;;;;;15.88;6.22;;;;;;;13.17;69.93;100518.69;5020614;28;20052;-69
2021/10/07 04:26:14;;;;;;;20.50;6.40;;;;;;;12.99;71.13;100516.06;5020233;28;20042;-69
2021/10/07 04:28:40;;;;;;;18.85;6.93;;;;;;;13.10;70.33;100499.00;5020683;28;20022;-69
2021/10/07 04:31:05;;;;;;;21.38;7.45;;;;;;;12.92;70.77;100520.34;5020895;28;20049;-69
2021/10/07 04:33:31;;;;;;;23.75;6.75;;;;;;;12.87;72.41;100513.84;5020641;28;20032;-69
2021/10/07 04:35:56;;;;;;;18.00;7.25;;;;;;;12.55;73.49;100506.53;5020566;28;20209;-69
2021/10/07 04:38:21;;;;;;;23.58;6.97;;;;;;;12.74;73.54;100511.63;5020845;28;20172;-69
2021/10/07 04:40:47;;;;;;;20.73;7.18;;;;;;;12.98;71.96;100502.94;5021787;28;20045;-69
2021/10/07 04:43:12;;;;;;;24.60;6.57;;;;;;;13.01;71.77;100511.44;5019496;28;20087;-69
2021/10/07 04:45:38;;;;;;;18.83;6.53;;;;;;;13.16;71.37;100513.47;5021305;28;20030;-69
2021/10/07 04:48:04;;;;;;;21.27;6.28;;;;;;;12.86;72.80;100517.50;5022596;28;20038;-69
2021/10/07 04:50:29;;;;;;;22.80;6.70;;;;;;;12.78;72.97;100519.13;5018596;28;20041;-68
2021/10/07 04:52:54;;;;;;;14.98;6.20;;;;;;;12.70;73.82;100518.25;5022252;28;20068;-69
2021/10/07 04:55:20;;;;;;;22.20;5.93;;;;;;;12.28;74.39;100486.22;5031138;28;20219;-69
2021/10/07 04:57:46;;;;;;;13.20;4.88;;;;;;;12.50;75.28;100517.59;5040344;28;20036;-69
2021/10/07 05:00:11;;;;;;;19.50;5.38;;;;;;;12.64;75.08;100517.03;5027517;28;20323;-69
2021/10/07 05:02:38;;;;;;;21.70;6.32;;;;;;;12.66;74.16;100516.88;5020267;28;20048;-69
2021/10/07 05:05:05;;;;;;;17.90;5.88;;;;;;;12.67;74.16;100506.09;5020769;28;20255;-69
2021/10/07 05:07:31;;;;;;;19.40;5.55;;;;;;;12.83;74.08;100515.16;5019146;28;20022;-69
2021/10/07 05:09:56;;;;;;;22.17;6.63;;;;;;;12.81;74.13;100502.03;5019678;28;20026;-68
2021/10/07 05:12:22;;;;;;;13.35;5.53;;;;;;;12.71;74.73;100496.00;5020277;28;20317;-69
2021/10/07 05:14:47;;;;;;;15.15;5.47;;;;;;;12.71;74.63;100496.81;5020186;28;20048;-69
2021/10/07 05:17:13;;;;;;;10.60;5.15;;;;;;;12.77;74.89;100500.66;5021354;28;20038;-69
2021/10/07 05:19:38;;;;;;;17.02;6.50;;;;;;;12.79;74.88;100507.50;5020549;28;20201;-69
2021/10/07 05:22:04;;;;;;;24.80;6.60;;;;;;;12.84;74.52;100512.34;5020977;28;20088;-69
2021/10/07 05:24:30;;;;;;;12.18;5.38;;;;;;;12.85;74.84;100521.97;5024921;28;20021;-69
2021/10/07 05:26:56;;;;;;;20.90;5.53;;;;;;;12.97;74.39;100522.53;5029551;28;20064;-69
2021/10/07 05:29:21;;;;;;;12.23;5.55;;;;;;;13.03;74.99;100513.94;5035205;28;20319;-68
2021/10/07 05:31:48;;;;;;;18.50;4.60;;;;;;;13.07;74.42;100518.75;5033347;28;20053;-68
2021/10/07 05:34:13;;;;;;;15.02;5.97;;;;;;;12.67;75.58;100514.06;5043639;28;20034;-69
2021/10/07 05:36:39;;;;;;;22.42;5.22;;;;;;;12.76;76.02;100521.09;5045247;28;20041;-69
2021/10/07 05:39:04;;;;;;;21.27;5.60;;;;;;;12.96;75.70;100523.53;5030936;28;20034;-69
2021/10/07 05:41:30;;;;;;;16.10;5.25;;;;;;;13.15;75.50;100525.13;5045371;28;20049;-71
2021/10/07 05:43:55;;;;;;;16.95;5.70;;;;;;;13.10;75.31;100528.25;5045081;28;20093;-69
2021/10/07 05:46:21;;;;;;;24.33;5.82;;;;;;;13.37;74.84;100521.91;5044892;28;20045;-69
2021/10/07 05:48:46;;;;;;;16.38;5.15;;;;;;;13.10;75.38;100526.44;5045558;28;20026;-68
2021/10/07 05:51:12;;;;;;;15.10;6.50;;;;;;;13.25;75.21;100518.72;5044488;28;20064;-68
2021/10/07 05:53:38;;;;;;;25.92;7.55;;;;;;;13.56;74.25;100527.00;5044855;28;20226;-68
2021/10/07 05:56:06;;;;;;;21.52;6.03;;;;;;;13.41;74.96;100517.94;5042054;28;20049;-68
2021/10/07 05:58:32;;;;;;;13.98;5.85;;;;;;;13.57;74.92;100519.84;5043875;28;20029;-69
2021/10/07 06:00:57;;;;;;;24.77;6.13;;;;;;;13.53;75.17;100527.31;5043652;28;20223;-68
2021/10/07 06:03:22;;;;;;;19.02;5.50;;;;;;;13.93;73.83;100526.56;5042426;28;20021;-68
2021/10/07 06:05:48;;;;;;;20.05;5.35;;;;;;;13.89;73.54;100522.56;5043793;28;20215;-69
2021/10/07 06:08:13;;;;;;;14.13;5.07;;;;;;;13.92;73.15;100527.56;5040781;28;20235;-69
2021/10/07 06:10:39;;;;;;;23.25;5.40;;;;;;;13.93;73.99;100526.56;5032519;28;20034;-69
2021/10/07 06:13:04;;;;;;;25.70;5.65;;;;;;;14.45;72.57;100536.09;5030606;28;20699;-69
2021/10/07 06:15:30;;;;;;;30.35;5.57;;;;;;;14.59;71.44;100533.59;5034062;28;20033;-69
2021/10/07 06:17:56;;;;;;;16.92;5.07;;;;;;;14.89;69.16;100531.22;5033376;28;20021;-69
2021/10/07 06:20:33;;;;;;;14.95;4.30;;;;;;;15.28;69.01;100536.56;5033983;28;20049;-69
2021/10/07 06:23:01;;;;;;;17.33;4.90;;;;;;;15.66;66.38;100524.28;5035102;28;20041;-69
2021/10/07 06:25:27;;;;;;;14.30;3.78;;;;;;;15.78;65.62;100532.72;5033911;28;20266;-69
2021/10/07 06:27:53;;;;;;;15.98;3.97;;;;;;;14.86;67.41;100524.38;5041871;28;20097;-68
2021/10/07 06:30:20;;;;;;;17.67;4.15;;;;;;;15.10;67.65;100533.31;5042790;28;20269;-68
2021/10/07 06:32:46;;;;;;;18.95;5.00;;;;;;;15.14;67.21;100526.63;5041341;28;20220;-69
2021/10/07 06:35:13;;;;;;;13.57;3.80;;;;;;;15.21;67.08;100533.78;5043152;28;20257;-69
2021/10/07 06:37:39;;;;;;;13.25;3.75;;;;;;;15.31;67.02;100526.38;5043158;28;20115;-69
2021/10/07 06:40:06;;;;;;;18.98;4.55;;;;;;;15.21;67.39;100516.94;5042556;28;20041;-69
2021/10/07 06:42:31;;;;;;;16.90;4.97;;;;;;;14.93;68.11;100540.53;5041187;28;20100;-68
2021/10/07 06:44:57;;;;;;;20.60;4.60;;;;;;;15.14;67.81;100530.13;5042566;28;20075;-68
2021/10/07 06:47:25;;;;;;;17.48;4.57;;;;;;;14.91;67.08;100522.03;5042576;28;20041;-69
2021/10/07 06:49:50;;;;;;;15.15;4.13;;;;;;;14.69;68.52;100541.41;5043002;28;20033;-69
2021/10/07 06:52:16;;;;;;;21.60;4.13;;;;;;;14.61;68.13;100534.28;5042151;28;20049;-69
2021/10/07 06:54:41;;;;;;;19.00;4.60;;;;;;;14.63;68.05;100518.94;5042516;28;20036;-68
2021/10/07 06:57:07;;;;;;;8.93;4.20;;;;;;;14.81;67.59;100533.91;5041631;28;20038;-70
2021/10/07 06:59:32;;;;;;;18.60;4.38;;;;;;;14.73;67.71;100526.75;5042593;28;20052;-70
2021/10/07 07:01:58;;;;;;;22.55;4.82;;;;;;;14.68;68.38;100524.59;5042083;28;20239;-71
2021/10/07 07:04:23;;;;;;;10.98;4.00;;;;;;;14.82;67.05;100520.41;5042682;28;20098;-70
2021/10/07 07:06:50;;;;;;;19.02;4.53;;;;;;;14.81;67.05;100517.91;5042719;28;20038;-71
2021/10/07 07:09:16;;;;;;;16.42;5.55;;;;;;;14.83;66.95;100513.22;5042367;28;20222;-70
2021/10/07 07:11:41;;;;;;;17.15;4.20;;;;;;;15.21;67.00;100514.25;5041977;28;20041;-70
2021/10/07 07:14:07;;;;;;;20.52;4.93;;;;;;;15.51;64.90;100502.78;5042422;28;20038;-68
2021/10/07 07:16:34;;;;;;;17.48;4.25;;;;;;;15.41;65.00;100520.84;5042690;28;20044;-68
2021/10/07 07:19:00;;;;;;;18.70;3.97;;;;;;;15.36;64.90;100517.88;5041885;28;20040;-70
2021/10/07 07:21:30;;;;;;;15.73;4.10;;;;;;;15.48;63.61;100520.97;5042544;28;20080;-70
2021/10/07 07:23:57;;;;;;;14.95;4.18;;;;;;;15.43;64.17;100515.31;5042373;28;20040;-70
2021/10/07 07:26:23;;;;;;;19.30;4.03;;;;;;;15.31;63.77;100526.38;5041702;28;20080;-70
2021/10/07 07:28:48;;;;;;;20.27;4.97;;;;;;;15.38;64.36;100515.03;5042486;28;20303;-68
2021/10/07 07:31:14;;;;;;;15.60;3.33;;;;;;;15.54;62.84;100531.78;5042118;28;20048;-70
2021/10/07 07:33:39;;;;;;;18.65;4.20;;;;;;;15.34;63.26;100531.38;5040729;28;20073;-70
2021/10/07 07:36:05;;;;;;;15.73;3.95;;;;;;;15.38;62.79;100534.53;5042048;28;20025;-70
2021/10/07 07:38:30;;;;;;;21.30;3.85;;;;;;;15.14;64.37;100530.13;5042122;28;20040;-71
2021/10/07 07:40:57;;;;;;;19.85;3.85;;;;;;;15.12;63.58;100529.47;5041475;28;20048;-71
2021/10/07 07:43:23;;;;;;;19.98;3.70;;;;;;;15.33;62.65;100526.22;5042159;28;20109;-71
2021/10/07 07:45:51;;;;;;;17.42;4.10;;;;;;;15.12;63.06;100520.63;5042007;28;20096;-71
2021/10/07 07:48:17;;;;;;;21.90;4.00;;;;;;;15.15;63.05;100517.63;5041811;28;20029;-71
2021/10/07 07:50:44;;;;;;;21.02;3.90;;;;;;;15.32;63.03;100522.72;5041403;28;20080;-71
2021/10/07 07:53:12;;;;;;;17.10;3.45;;;;;;;15.21;62.16;100520.44;5040536;28;20208;-71
2021/10/07 07:55:38;;;;;;;18.88;3.45;;;;;;;15.46;62.63;100520.31;5040942;28;20095;-71
2021/10/07 07:58:04;;;;;;;16.58;3.67;;;;;;;15.34;62.19;100517.22;5041563;28;20125;-71
2021/10/07 08:00:30;;;;;;;20.50;4.28;;;;;;;15.51;62.03;100518.78;5041867;28;20034;-71
2021/10/07 08:02:56;;;;;;;17.42;3.78;;;;;;;15.57;61.90;100523.47;5039753;28;20029;-71
2021/10/07 08:05:22;;;;;;;16.17;5.30;;;;;;;15.62;62.29;100536.31;5041415;28;20341;-71
2021/10/07 08:07:48;;;;;;;19.92;4.70;;;;;;;15.69;61.65;100547.94;5039998;28;20331;-70
2021/10/07 08:10:13;;;;;;;23.80;4.60;;;;;;;15.71;61.03;100537.09;5040823;28;20057;-71
2021/10/07 08:12:39;;;;;;;23.17;4.47;;;;;;;15.81;61.20;100540.38;5040090;28;20083;-71
2021/10/07 08:15:09;;;;;;;14.68;3.78;;;;;;;15.86;61.29;100535.31;5041339;28;20188;-71
2021/10/07 08:17:34;;;;;;;17.08;3.78;;;;;;;15.98;59.92;100543.75;5040987;28;20029;-71
2021/10/07 08:20:02;;;;;;;18.35;4.63;;;;;;;16.01;59.86;100544.25;5041146;28;20045;-71
2021/10/07 08:22:27;;;;;;;20.60;4.43;;;;;;;16.02;60.05;100539.72;5041297;28;20029;-71
2021/10/07 08:24:53;;;;;;;17.58;4.07;;;;;;;15.99;59.96;100553.44;5039752;28;20052;-71
2021/10/07 08:27:19;;;;;;;16.95;4.03;;;;;;;15.80;60.49;100552.06;5041009;28;20335;-71
2021/10/07 08:29:46;;;;;;;23.00;4.97;;;;;;;16.06;59.84;100531.19;5041190;28;20127;-71
2021/10/07 08:32:11;;;;;;;17.13;4.07;;;;;;;16.14;59.87;100539.13;5039256;28;20065;-71
2021/10/07 08:34:37;;;;;;;27.85;5.10;;;;;;;16.10;59.80;100548.50;5040816;28;20021;-70
2021/10/07 08:37:04;;;;;;;17.42;4.90;;;;;;;16.11;59.78;100550.19;5041000;28;20037;-70
2021/10/07 08:39:30;;;;;;;24.58;5.60;;;;;;;16.02;60.01;100542.41;5040595;28;20263;-70
2021/10/07 08:41:56;;;;;;;23.00;5.05;;;;;;;16.15;59.32;100540.78;5041337;28;20038;-71
2021/10/07 08:44:22;;;;;;;17.15;5.03;;;;;;;15.99;60.41;100540.09;5040974;28;20032;-71
2021/10/07 08:46:50;;;;;;;25.42;6.13;;;;;;;16.12;60.56;100533.13;5041079;28;20076;-68
2021/10/07 08:49:19;;;;;;;27.15;7.10;;;;;;;16.01;60.79;100527.38;5040511;28;20032;-70
2021/10/07 08:51:45;;;;;;;23.92;6.88;;;;;;;16.04;60.61;100517.16;5040389;28;20045;-70
2021/10/07 08:54:11;;;;;;;17.65;6.43;;;;;;;15.81;60.26;100517.16;5040981;28;20262;-71
2021/10/07 08:56:38;;;;;;;30.55;8.52;;;;;;;16.26;60.04;100519.00;5040145;28;20048;-70
2021/10/07 08:59:05;;;;;;;22.80;7.20;;;;;;;16.30;59.32;100530.16;5040863;28;20230;-71
2021/10/07 09:01:39;;;;;;;24.48;7.72;;;;;;;16.19;59.75;100518.06;5040674;28;20037;-71
2021/10/07 09:04:21;;;;;;;24.98;8.13;;;;;;;15.93;60.31;100525.59;5039690;28;20304;-70
2021/10/07 09:06:49;;;;;;;34.92;12.35;;;;;;;15.86;60.60;100521.97;5040641;28;20201;-70
2021/10/07 09:09:15;;;;;;;32.15;13.60;;;;;;;16.02;59.93;100518.34;5053127;28;20263;-71
2021/10/07 09:11:41;;;;;;;30.00;12.98;;;;;;;16.05;59.82;100518.00;5048510;28;20075;-71
2021/10/07 09:14:09;;;;;;;33.88;13.32;;;;;;;16.19;59.56;100522.56;5044919;28;20036;-70
2021/10/07 09:16:44;;;;;;;34.20;13.63;;;;;;;16.34;59.32;100515.41;5044309;28;20042;-70
2021/10/07 09:19:15;;;;;;;34.53;13.30;;;;;;;16.38;59.32;100521.22;5044824;28;20025;-70
2021/10/07 09:21:41;;;;;;;34.05;13.82;;;;;;;16.66;57.96;100510.84;5044852;28;20303;-70
2021/10/07 09:24:32;;;;;;;31.35;12.27;;;;;;;16.53;58.79;100519.41;5044534;28;20057;-70
2021/10/07 09:27:01;;;;;;;31.38;11.50;;;;;;;16.40;57.95;100511.19;5044708;28;20223;-70
2021/10/07 09:29:56;;;;;;;25.33;9.00;;;;;;;16.55;58.58;100504.84;5043566;28;20152;-70
2021/10/07 09:32:34;;;;;;;39.88;12.70;;;;;;;16.64;57.71;100515.47;5043754;28;20033;-70
2021/10/07 09:35:03;;;;;;;26.83;9.98;;;;;;;16.35;58.27;100506.38;5044151;28;20104;-70
2021/10/07 09:37:40;;;;;;;28.35;10.73;;;;;;;16.13;59.17;100516.09;5043986;28;20376;-70
2021/10/07 09:40:06;;;;;;;28.73;10.90;;;;;;;16.22;59.29;100516.84;5043838;28;20364;-70
2021/10/07 09:42:38;;;;;;;26.25;11.15;;;;;;;16.28;59.40;100513.47;5044088;28;20059;-70
2021/10/07 09:45:16;;;;;;;28.92;10.50;;;;;;;16.49;59.15;100502.91;5044007;28;20029;-70
2021/10/07 09:48:02;;;;;;;34.70;13.43;;;;;;;16.68;59.36;100506.97;5043870;28;20041;-69
2021/10/07 09:50:45;;;;;;;28.55;10.88;;;;;;;16.84;58.56;100508.63;5043982;28;20094;-70
2021/10/07 09:53:13;;;;;;;33.30;9.35;;;;;;;16.89;58.06;100515.09;5043913;28;20817;-70
2021/10/07 09:55:48;;;;;;;23.35;6.80;;;;;;;16.80;57.98;100507.34;5043871;28;20319;-70
2021/10/07 09:58:18;;;;;;;32.00;11.77;;;;;;;16.88;58.08;100500.06;5043780;28;20053;-69
2021/10/07 10:00:49;;;;;;;37.00;11.63;;;;;;;16.86;56.95;100495.91;5043811;28;20100;-70
2021/10/07 10:03:15;;;;;;;29.73;11.32;;;;;;;16.86;57.61;100510.09;5043577;28;20037;-70
2021/10/07 10:05:42;;;;;;;32.70;10.48;;;;;;;16.95;57.02;100500.16;5042811;28;20029;-69
2021/10/07 10:08:10;;;;;;;34.80;10.52;;;;;;;16.87;56.99;100497.56;5043561;28;20230;-70
2021/10/07 10:10:37;;;;;;;30.13;9.63;;;;;;;16.73;57.46;100498.41;5043566;28;20029;-70
2021/10/07 10:13:04;;;;;;;24.45;8.23;;;;;;;16.74;57.17;100505.41;5043727;28;20098;-70
2021/10/07 10:15:29;;;;;;;29.27;8.57;;;;;;;16.77;57.73;100500.50;5043874;28;20033;-70
2021/10/07 10:17:55;;;;;;;34.40;8.52;;;;;;;16.82;57.82;100495.44;5037191;28;20025;-69
2021/10/07 10:20:22;;;;;;;22.90;9.02;;;;;;;16.86;58.11;100501.25;5029401;28;20319;-70
2021/10/07 10:23:00;;;;;;;29.58;7.00;;;;;;;16.87;57.78;100502.91;5031352;28;20097;-70
2021/10/07 10:25:28;;;;;;;24.52;7.43;;;;;;;16.80;57.47;100489.44;5031678;28;20033;-70
2021/10/07 10:28:03;;;;;;;31.40;7.18;;;;;;;17.08;57.96;100486.13;5031355;28;20480;-70
2021/10/07 10:30:38;;;;;;;24.27;5.18;;;;;;;16.96;57.11;100482.25;5029865;28;20275;-69
2021/10/07 10:33:04;;;;;;;19.33;4.82;;;;;;;16.87;57.00;100493.06;5032546;28;20301;-70
2021/10/07 10:35:38;;;;;;;19.83;5.47;;;;;;;16.73;57.79;100496.53;5035537;28;20041;-69
2021/10/07 10:38:06;;;;;;;35.75;5.30;;;;;;;16.74;58.33;100482.16;5028178;28;20065;-69
2021/10/07 10:40:32;;;;;;;23.75;6.60;;;;;;;16.82;57.90;100466.03;5032868;28;20029;-70
2021/10/07 10:43:34;;;;;;;24.73;5.25;;;;;;;16.98;57.91;100480.22;5034279;28;20068;-70
2021/10/07 10:45:59;;;;;;;17.13;4.32;;;;;;;16.66;58.44;100476.06;5006692;28;20049;-70
2021/10/07 10:48:49;;;;;;;19.48;5.00;;;;;;;16.41;59.24;100476.25;5029200;28;20041;-70
2021/10/07 10:51:16;;;;;;;25.73;4.57;;;;;;;16.35;59.81;100477.00;5032703;28;20091;-70
2021/10/07 10:53:49;;;;;;;19.08;5.07;;;;;;;16.22;59.32;100455.41;5031852;28;20075;-70
2021/10/07 10:56:15;;;;;;;22.27;5.00;;;;;;;16.24;60.13;100469.41;5033506;28;20371;-70
2021/10/07 10:58:40;;;;;;;25.27;4.53;;;;;;;16.31;59.56;100475.69;5033852;28;20037;-69
2021/10/07 11:01:13;;;;;;;16.27;4.00;;;;;;;16.06;60.20;100475.09;5035137;28;20045;-69
2021/10/07 11:03:39;;;;;;;16.48;4.07;;;;;;;15.92;60.93;100476.69;5031932;28;20026;-69
2021/10/07 11:06:09;;;;;;;21.52;4.97;;;;;;;16.13;60.28;100461.84;5031412;28;20069;-70
2021/10/07 11:08:41;;;;;;;20.83;4.15;;;;;;;16.17;60.07;100461.28;5030402;28;20217;-69
2021/10/07 11:11:22;;;;;;;20.98;3.95;;;;;;;16.02;61.09;100463.09;5032483;28;20071;-69
2021/10/07 11:13:48;;;;;;;22.73;4.95;;;;;;;16.05;60.72;100475.25;5040032;28;20044;-70
2021/10/07 11:16:17;;;;;;;28.60;4.18;;;;;;;16.19;60.19;100459.25;5039408;28;20018;-70
2021/10/07 11:18:45;;;;;;;25.00;4.53;;;;;;;15.92;60.35;100428.63;5038423;28;20041;-69
2021/10/07 11:21:17;;;;;;;15.77;3.63;;;;;;;16.28;60.08;100458.19;5042702;28;20052;-70
2021/10/07 11:23:52;;;;;;;26.00;4.05;;;;;;;16.22;59.74;100461.56;5042334;28;20032;-70